createdAt,value
2018-11-03T00:01:12.274Z,11.67
2018-11-03T00:03:45.427Z,11.83
2018-11-03T00:06:15.725Z,8.67
2018-11-03T00:08:48.134Z,12.33
2018-11-03T00:11:20.695Z,11.00
2018-11-03T00:13:50.933Z,11.00
2018-11-03T00:16:22.277Z,11.00
2018-11-03T00:19:00.002Z,11.33
2018-11-03T00:21:40.480Z,9.00
2018-11-03T00:24:11.190Z,8.00
2018-11-03T00:26:43.238Z,8.33
2018-11-03T00:29:12.580Z,11.00
2018-11-03T00:34:16.387Z,10.00
2018-11-03T00:36:46.639Z,10.67
2018-11-03T00:39:26.372Z,9.00
2018-11-03T00:41:57.049Z,11.00
2018-11-03T00:44:28.215Z,13.67
2018-11-03T00:47:01.382Z,11.00
2018-11-03T00:49:32.834Z,11.00
2018-11-03T00:52:03.217Z,14.33
2018-11-03T00:54:34.094Z,15.67
2018-11-03T00:57:04.544Z,13.00
2018-11-03T00:59:34.921Z,11.67
2018-11-03T01:02:05.261Z,13.00
2018-11-03T01:04:35.807Z,13.00
2018-11-03T01:07:11.907Z,11.67
2018-11-03T01:09:42.633Z,11.67
2018-11-03T01:12:12.939Z,13.00
2018-11-03T01:14:43.192Z,11.00
2018-11-03T01:17:13.973Z,13.00
2018-11-03T01:19:44.496Z,11.00
2018-11-03T01:22:16.254Z,14.33
2018-11-03T01:24:46.569Z,13.00
2018-11-03T01:27:15.935Z,11.00
2018-11-03T01:29:46.426Z,14.00
2018-11-03T01:32:18.534Z,12.83
2018-11-03T01:34:48.081Z,14.00
2018-11-03T01:37:17.475Z,13.00
2018-11-03T01:39:46.840Z,11.00
2018-11-03T01:42:18.076Z,15.33
2018-11-03T01:44:50.536Z,13.67
2018-11-03T01:47:23.179Z,14.00
2018-11-03T01:49:53.746Z,14.00
2018-11-03T01:52:23.570Z,13.33
2018-11-03T01:54:54.808Z,16.00
2018-11-03T01:57:24.859Z,17.33
2018-11-03T01:59:54.213Z,17.00
2018-11-03T02:02:25.959Z,14.67
2018-11-03T02:04:55.526Z,14.00
2018-11-03T02:07:27.416Z,16.67
2018-11-03T02:09:57.121Z,13.00
2018-11-03T02:12:30.903Z,15.67
2018-11-03T02:15:06.023Z,17.33
2018-11-03T02:17:36.068Z,14.67
2018-11-03T02:20:07.411Z,18.00
2018-11-03T02:22:36.789Z,16.67
2018-11-03T02:25:06.231Z,16.67
2018-11-03T02:27:38.201Z,19.33
2018-11-03T02:30:08.533Z,18.00
2018-11-03T02:32:38.192Z,14.67
2018-11-03T02:35:09.338Z,16.00
2018-11-03T02:37:39.214Z,20.33
2018-11-03T02:40:10.708Z,19.67
2018-11-03T02:42:40.540Z,17.33
2018-11-03T02:45:14.155Z,20.00
2018-11-03T02:48:03.065Z,21.33
2018-11-03T02:50:32.441Z,15.00
2018-11-03T02:53:02.347Z,18.00
2018-11-03T02:55:33.641Z,18.67
2018-11-03T02:58:03.074Z,20.67
2018-11-03T03:00:32.428Z,22.00
2018-11-03T03:03:03.565Z,19.00
2018-11-03T03:05:33.514Z,23.67
2018-11-03T03:08:04.579Z,22.00
2018-11-03T03:10:35.517Z,19.33
2018-11-03T03:13:04.884Z,20.00
2018-11-03T03:15:34.255Z,20.00
2018-11-03T03:18:05.264Z,18.67
2018-11-03T03:20:35.025Z,22.67
2018-11-03T03:23:04.479Z,23.67
2018-11-03T03:25:33.913Z,20.67
2018-11-03T03:28:03.818Z,21.33
2018-11-03T03:30:35.519Z,21.00
2018-11-03T03:33:04.944Z,22.67
2018-11-03T03:35:34.810Z,24.00
2018-11-03T03:38:04.200Z,26.67
2018-11-03T03:40:33.612Z,22.33
2018-11-03T03:43:03.050Z,22.00
2018-11-03T03:45:32.480Z,21.33
2018-11-03T03:48:02.904Z,22.00
2018-11-03T03:50:32.314Z,22.00
2018-11-03T03:53:01.736Z,22.33
2018-11-03T03:55:31.104Z,21.33
2018-11-03T03:58:00.457Z,24.00
2018-11-03T04:00:32.053Z,25.33
2018-11-03T04:03:02.061Z,25.33
2018-11-03T04:05:31.569Z,24.67
2018-11-03T04:08:00.928Z,29.33
2018-11-03T04:10:30.652Z,21.67
2018-11-03T04:13:01.176Z,21.33
2018-11-03T04:15:31.760Z,26.00
2018-11-03T04:18:01.127Z,25.67
2018-11-03T04:20:31.947Z,28.00
2018-11-03T04:23:02.295Z,21.67
2018-11-03T04:25:41.682Z,24.33
2018-11-03T04:28:23.570Z,26.00
2018-11-03T04:30:54.133Z,22.33
2018-11-03T04:33:23.484Z,20.33
2018-11-03T04:35:53.309Z,24.67
2018-11-03T04:38:22.892Z,24.67
2018-11-03T04:40:57.430Z,25.67
2018-11-03T04:43:27.373Z,17.33
2018-11-03T04:45:56.743Z,22.33
2018-11-03T04:48:26.656Z,21.00
2018-11-03T04:50:59.792Z,20.33
2018-11-03T04:53:29.149Z,19.67
2018-11-03T04:55:58.545Z,21.00
2018-11-03T04:58:27.917Z,21.00
2018-11-03T05:00:57.276Z,22.67
2018-11-03T05:03:26.928Z,24.67
2018-11-03T05:05:56.469Z,23.67
2018-11-03T05:08:26.123Z,19.00
2018-11-03T05:10:55.700Z,25.33
2018-11-03T05:13:25.068Z,21.00
2018-11-03T05:15:54.417Z,20.33
2018-11-03T05:18:25.898Z,22.33
2018-11-03T05:20:55.328Z,21.00
2018-11-03T05:23:24.794Z,20.33
2018-11-03T05:25:57.254Z,21.00
2018-11-03T05:28:26.629Z,26.33
2018-11-03T05:30:56.369Z,28.00
2018-11-03T05:33:26.093Z,26.33
2018-11-03T05:35:55.452Z,24.67
2018-11-03T05:38:26.088Z,21.67
2018-11-03T05:40:55.470Z,23.67
2018-11-03T05:43:28.004Z,22.00
2018-11-03T05:45:57.700Z,20.33
2018-11-03T05:48:27.101Z,21.67
2018-11-03T05:50:56.508Z,26.33
2018-11-03T05:53:25.877Z,24.33
2018-11-03T05:55:56.656Z,25.00
2018-11-03T05:58:26.119Z,19.67
2018-11-03T06:00:55.928Z,20.33
2018-11-03T06:03:27.596Z,22.67
2018-11-03T06:05:56.952Z,25.67
2018-11-03T06:08:27.364Z,26.33
2018-11-03T06:10:56.736Z,24.33
2018-11-03T06:13:26.429Z,25.67
2018-11-03T06:15:55.871Z,25.67
2018-11-03T06:18:25.466Z,25.67
2018-11-03T06:20:55.355Z,24.67
2018-11-03T06:23:26.133Z,24.33
2018-11-03T06:25:55.609Z,23.67
2018-11-03T06:28:25.007Z,26.67
2018-11-03T06:30:55.549Z,20.33
2018-11-03T06:33:24.980Z,27.67
2018-11-03T06:35:54.370Z,27.67
2018-11-03T06:38:25.218Z,27.00
2018-11-03T06:40:54.624Z,24.33
2018-11-03T06:43:24.179Z,25.00
2018-11-03T06:45:56.623Z,25.67
2018-11-03T06:48:26.565Z,29.33
2018-11-03T06:50:57.624Z,20.67
2018-11-03T06:53:31.699Z,22.33
2018-11-03T06:56:01.860Z,22.00
2018-11-03T06:58:31.487Z,21.00
2018-11-03T07:01:04.195Z,24.33
2018-11-03T07:03:37.204Z,20.67
2018-11-03T07:06:09.017Z,25.33
2018-11-03T07:08:41.400Z,23.67
2018-11-03T07:11:11.395Z,27.33
2018-11-03T07:13:41.649Z,20.33
2018-11-03T07:16:11.044Z,21.00
2018-11-03T07:18:41.727Z,22.67
2018-11-03T07:21:11.305Z,24.67
2018-11-03T07:23:49.766Z,25.00
2018-11-03T07:26:19.669Z,22.67
2018-11-03T07:28:49.088Z,22.00
2018-11-03T07:31:19.448Z,22.67
2018-11-03T07:33:49.209Z,24.00
2018-11-03T07:36:20.386Z,19.00
2018-11-03T07:38:49.853Z,26.67
2018-11-03T07:41:20.454Z,22.33
2018-11-03T07:43:51.441Z,23.33
2018-11-03T07:46:21.064Z,24.00
2018-11-03T07:48:55.371Z,20.67
2018-11-03T07:51:31.268Z,22.67
2018-11-03T07:54:14.351Z,24.00
2018-11-03T07:56:44.669Z,21.67
2018-11-03T07:59:18.544Z,21.33
2018-11-03T08:01:53.708Z,25.33
2018-11-03T08:04:26.716Z,27.67
2018-11-03T08:06:56.562Z,26.33
2018-11-03T08:09:27.916Z,30.67
2018-11-03T08:11:57.327Z,23.67
2018-11-03T08:14:27.826Z,22.33
2018-11-03T08:16:57.245Z,23.67
2018-11-03T08:19:27.417Z,22.67
2018-11-03T08:22:00.522Z,21.33
2018-11-03T08:24:31.190Z,25.33
2018-11-03T08:27:00.643Z,24.67
2018-11-03T08:29:31.909Z,21.67
2018-11-03T08:32:02.315Z,23.00
2018-11-03T08:34:34.172Z,25.67
2018-11-03T08:37:03.595Z,19.33
2018-11-03T08:39:34.775Z,22.67
2018-11-03T08:42:11.260Z,26.00
2018-11-03T08:44:41.420Z,22.00
2018-11-03T08:47:11.564Z,22.67
2018-11-03T08:49:42.905Z,25.00
2018-11-03T08:52:14.218Z,23.67
2018-11-03T08:54:46.945Z,22.33
2018-11-03T08:57:18.652Z,27.33
2018-11-03T09:00:01.836Z,21.67
2018-11-03T09:02:44.234Z,22.67
2018-11-03T09:05:16.417Z,25.67
2018-11-03T09:07:49.649Z,23.33
2018-11-03T09:10:19.488Z,24.67
2018-11-03T09:12:49.804Z,25.67
2018-11-03T09:15:24.181Z,23.33
2018-11-03T09:17:54.367Z,23.33
2018-11-03T09:20:24.425Z,23.33
2018-11-03T09:22:59.824Z,27.67
2018-11-03T09:25:30.454Z,24.00
2018-11-03T09:31:07.741Z,31.67
2018-11-03T09:33:43.524Z,25.67
2018-11-03T09:36:15.686Z,26.33
2018-11-03T09:38:45.560Z,31.33
2018-11-03T09:41:19.000Z,27.33
2018-11-03T09:43:48.450Z,28.67
2018-11-03T09:46:19.677Z,30.00
2018-11-03T09:48:51.432Z,29.33
2018-11-03T09:51:21.501Z,29.00
2018-11-03T09:53:52.045Z,34.00
2018-11-03T09:56:23.915Z,26.00
2018-11-03T09:58:54.241Z,32.33
2018-11-03T10:01:23.840Z,32.00
2018-11-03T10:03:53.447Z,23.67
2018-11-03T10:06:26.096Z,25.33
2018-11-03T10:08:59.310Z,29.67
2018-11-03T10:11:29.593Z,28.00
2018-11-03T10:13:59.038Z,32.33
2018-11-03T10:16:30.241Z,27.33
2018-11-03T10:19:32.300Z,33.33
2018-11-03T10:22:03.406Z,31.33
2018-11-03T10:24:34.141Z,28.67
2018-11-03T10:29:45.700Z,24.67
2018-11-03T10:32:23.430Z,26.67
2018-11-03T10:34:53.409Z,27.00
2018-11-03T10:37:26.863Z,27.67
2018-11-03T10:40:02.282Z,26.67
2018-11-03T10:42:34.302Z,27.33
2018-11-03T10:47:45.031Z,25.67
2018-11-03T10:50:17.745Z,23.00
2018-11-03T10:52:50.403Z,26.00
2018-11-03T10:55:21.631Z,23.67
2018-11-03T10:57:53.492Z,24.00
2018-11-03T11:00:36.231Z,25.00
2018-11-03T11:03:11.482Z,24.33
2018-11-03T11:05:50.418Z,28.67
2018-11-03T11:08:31.724Z,26.33
2018-11-03T11:11:07.222Z,28.00
2018-11-03T11:13:39.296Z,27.33
2018-11-03T11:16:08.720Z,25.67
2018-11-03T11:18:38.303Z,28.00
2018-11-03T11:21:08.175Z,24.67
2018-11-03T11:23:37.544Z,21.33
2018-11-03T11:26:07.141Z,27.00
2018-11-03T11:28:39.407Z,30.00
2018-11-03T11:31:09.908Z,26.33
2018-11-03T11:33:39.775Z,24.67
2018-11-03T11:36:09.939Z,24.67
2018-11-03T11:38:39.935Z,25.00
2018-11-03T11:41:09.532Z,24.33
2018-11-03T11:43:39.364Z,23.67
2018-11-03T11:46:09.413Z,17.00
2018-11-03T11:48:38.800Z,25.67
2018-11-03T11:51:08.741Z,24.33
2018-11-03T11:53:40.332Z,22.00
2018-11-03T11:56:12.641Z,24.67
2018-11-03T11:58:42.106Z,25.67
2018-11-03T12:01:11.533Z,19.33
2018-11-03T12:03:43.239Z,15.67
2018-11-03T12:06:17.284Z,19.33
2018-11-03T12:08:51.253Z,19.33
2018-11-03T12:11:40.719Z,22.00
2018-11-03T12:15:14.489Z,23.00
2018-11-03T12:17:47.320Z,22.00
2018-11-03T12:20:21.356Z,19.33
2018-11-03T12:22:54.293Z,20.00
2018-11-03T12:25:26.779Z,16.33
2018-11-03T12:27:57.312Z,17.00
2018-11-03T12:30:27.539Z,18.67
2018-11-03T12:35:55.175Z,16.00
2018-11-03T12:38:28.244Z,19.00
2018-11-03T12:40:59.980Z,16.33
2018-11-03T12:43:30.602Z,18.67
2018-11-03T12:46:03.238Z,16.67
2018-11-03T12:48:35.893Z,17.33
2018-11-03T12:51:11.568Z,14.00
2018-11-03T12:53:40.897Z,13.67
2018-11-03T12:56:11.184Z,14.00
2018-11-03T12:58:41.492Z,11.00
2018-11-03T13:01:13.671Z,12.33
2018-11-03T13:03:45.015Z,11.00
2018-11-03T13:06:18.676Z,12.67
2018-11-03T13:08:53.616Z,14.33
2018-11-03T13:11:27.539Z,10.67
2018-11-03T13:14:01.573Z,14.00
2018-11-03T13:16:33.086Z,16.67
2018-11-03T13:19:05.000Z,15.33
2018-11-03T13:21:39.456Z,15.33
2018-11-03T13:24:10.665Z,16.33
2018-11-03T13:26:41.087Z,18.33
2018-11-03T13:29:11.422Z,17.00
2018-11-03T13:31:41.543Z,19.00
2018-11-03T13:34:11.240Z,21.33
2018-11-03T13:36:41.671Z,19.00
2018-11-03T13:39:11.845Z,21.33
2018-11-03T13:41:41.199Z,18.67
2018-11-03T13:44:10.603Z,19.67
2018-11-03T13:46:40.459Z,19.00
2018-11-03T13:49:08.702Z,20.00
2018-11-03T13:51:38.264Z,21.00
2018-11-03T13:54:08.367Z,21.00
2018-11-03T13:56:40.748Z,23.00
2018-11-03T13:59:10.161Z,24.00
2018-11-03T14:01:44.313Z,22.00
2018-11-03T14:04:13.923Z,21.00
2018-11-03T14:06:43.396Z,21.00
2018-11-03T14:09:17.147Z,18.00
2018-11-03T14:11:48.812Z,20.67
2018-11-03T14:14:19.011Z,19.67
2018-11-03T14:16:48.951Z,20.67
2018-11-03T14:19:20.379Z,20.67
2018-11-03T14:21:50.998Z,21.67
2018-11-03T14:24:20.357Z,20.67
2018-11-03T14:26:50.580Z,19.00
2018-11-03T14:29:19.936Z,18.33
2018-11-03T14:31:53.744Z,19.00
2018-11-03T14:34:23.425Z,22.00
2018-11-03T14:36:52.802Z,19.00
2018-11-03T14:39:22.710Z,22.00
2018-11-03T14:41:53.112Z,18.33
2018-11-03T14:44:22.698Z,22.00
2018-11-03T14:46:53.365Z,20.67
2018-11-03T14:49:24.480Z,19.00
2018-11-03T14:51:56.130Z,19.33
2018-11-03T14:54:26.486Z,20.67
2018-11-03T14:56:55.875Z,19.33
2018-11-03T14:59:25.858Z,18.00
2018-11-03T15:01:55.337Z,19.00
2018-11-03T15:04:24.664Z,19.33
2018-11-03T15:06:54.957Z,20.33
2018-11-03T15:09:24.868Z,16.00
2018-11-03T15:11:57.144Z,17.33
2018-11-03T15:14:27.267Z,15.67
2018-11-03T15:17:03.405Z,17.00
2018-11-03T15:19:33.660Z,16.67
2018-11-03T15:22:18.492Z,16.33
2018-11-03T15:24:48.053Z,15.33
2018-11-03T15:27:17.796Z,16.00
2018-11-03T15:29:47.861Z,14.67
2018-11-03T15:32:18.104Z,15.00
2018-11-03T15:34:48.374Z,17.67
2018-11-03T15:37:18.223Z,15.67
2018-11-03T15:39:49.468Z,19.00
2018-11-03T15:42:19.521Z,16.00
2018-11-03T15:44:50.796Z,16.33
2018-11-03T15:47:21.048Z,18.00
2018-11-03T15:49:51.770Z,16.67
2018-11-03T15:52:27.695Z,18.67
2018-11-03T15:54:59.362Z,19.67
2018-11-03T15:57:29.353Z,18.67
2018-11-03T16:00:00.513Z,16.67
2018-11-03T16:02:46.302Z,15.67
2018-11-03T16:05:18.210Z,17.67
2018-11-03T16:07:48.185Z,17.67
2018-11-03T16:10:18.237Z,14.33
2018-11-03T16:12:48.647Z,17.00
2018-11-03T16:15:26.007Z,14.67
2018-11-03T16:18:00.690Z,16.00
2018-11-03T16:20:30.224Z,18.33
2018-11-03T16:23:01.340Z,16.00
2018-11-03T16:25:38.184Z,17.33
2018-11-03T16:28:11.698Z,18.00
2018-11-03T16:30:44.769Z,18.33
2018-11-03T16:33:15.282Z,19.33
2018-11-03T16:35:45.415Z,19.33
2018-11-03T16:38:14.852Z,18.00
2018-11-03T16:40:44.418Z,18.00
2018-11-03T16:43:14.465Z,18.00
2018-11-03T16:45:49.641Z,18.00
2018-11-03T16:48:21.229Z,19.33
2018-11-03T16:50:51.262Z,16.33
2018-11-03T16:53:20.629Z,18.00
2018-11-03T16:55:51.713Z,19.33
2018-11-03T16:58:23.882Z,22.33
2018-11-03T17:00:54.471Z,19.00
2018-11-03T17:03:24.051Z,23.67
2018-11-03T17:05:53.988Z,18.33
2018-11-03T17:08:23.877Z,20.00
2018-11-03T17:10:53.430Z,22.00
2018-11-03T17:13:22.866Z,21.00
2018-11-03T17:15:52.883Z,22.00
2018-11-03T17:18:22.338Z,24.00
2018-11-03T17:20:52.876Z,22.00
2018-11-03T17:23:23.427Z,23.67
2018-11-03T17:25:53.890Z,22.00
2018-11-03T17:28:26.077Z,27.33
2018-11-03T17:30:57.725Z,27.00
2018-11-03T17:33:29.813Z,23.67
2018-11-03T17:36:00.653Z,22.67
2018-11-03T17:38:30.386Z,22.67
2018-11-03T17:40:59.786Z,22.00
2018-11-03T17:43:29.169Z,28.33
2018-11-03T17:46:00.796Z,26.67
2018-11-03T17:48:33.260Z,25.00
2018-11-03T17:51:08.549Z,24.33
2018-11-03T17:53:40.329Z,27.33
2018-11-03T17:56:11.756Z,24.33
2018-11-03T17:58:41.724Z,26.33
2018-11-03T18:01:11.194Z,25.00
2018-11-03T18:03:42.868Z,21.67
2018-11-03T18:06:17.609Z,25.67
2018-11-03T18:08:47.781Z,23.33
2018-11-03T18:11:24.456Z,22.67
2018-11-03T18:13:54.464Z,27.33
2018-11-03T18:16:26.054Z,26.67
2018-11-03T18:18:57.272Z,23.33
2018-11-03T18:21:30.020Z,24.00
2018-11-03T18:24:03.657Z,21.67
2018-11-03T18:26:34.438Z,24.33
2018-11-03T18:29:06.335Z,24.00
2018-11-03T18:31:45.680Z,29.00
2018-11-03T18:34:18.841Z,25.67
2018-11-03T18:36:51.272Z,29.00
2018-11-03T18:39:22.171Z,20.67
2018-11-03T18:41:54.236Z,25.00
2018-11-03T18:44:25.456Z,29.00
2018-11-03T18:47:01.205Z,26.67
2018-11-03T18:49:33.797Z,26.33
2018-11-03T18:52:03.618Z,25.33
2018-11-03T18:54:37.813Z,29.00
2018-11-03T18:57:07.879Z,25.67
2018-11-03T18:59:44.588Z,24.00
2018-11-03T19:02:14.832Z,25.00
2018-11-03T19:04:47.313Z,24.67
2018-11-03T19:07:17.832Z,27.00
2018-11-03T19:09:47.232Z,24.67
2018-11-03T19:12:17.101Z,22.00
2018-11-03T19:14:47.416Z,25.33
2018-11-03T19:17:17.847Z,29.67
2018-11-03T19:19:48.337Z,28.33
2018-11-03T19:22:17.733Z,29.33
2018-11-03T19:24:53.450Z,23.00
2018-11-03T19:27:22.857Z,29.00
2018-11-03T19:29:55.128Z,29.00
2018-11-03T19:32:25.389Z,29.67
2018-11-03T19:34:56.696Z,27.00
2018-11-03T19:37:30.085Z,20.67
2018-11-03T19:40:02.036Z,26.33
2018-11-03T19:42:34.308Z,23.00
2018-11-03T19:45:05.776Z,22.67
2018-11-03T19:47:36.280Z,25.67
2018-11-03T19:50:07.537Z,23.33
2018-11-03T19:52:42.163Z,24.33
2018-11-03T19:55:15.338Z,24.67
2018-11-03T19:57:48.851Z,23.00
2018-11-03T20:00:25.118Z,26.00
2018-11-03T20:06:04.596Z,25.33
2018-11-03T20:08:34.494Z,25.67
2018-11-03T20:11:08.018Z,24.33
2018-11-03T20:13:45.260Z,24.67
2018-11-03T20:16:14.817Z,28.00
2018-11-03T20:18:47.487Z,25.33
2018-11-03T20:21:18.420Z,27.00
2018-11-03T20:23:49.440Z,23.67
2018-11-03T20:26:22.297Z,25.33
2018-11-03T20:28:56.281Z,26.00
2018-11-03T20:31:27.999Z,25.33
2018-11-03T20:34:01.650Z,26.00
2018-11-03T20:36:32.264Z,25.67
2018-11-03T20:39:04.557Z,27.67
2018-11-03T20:41:34.298Z,26.00
2018-11-03T20:44:07.639Z,29.00
2018-11-03T20:46:38.255Z,24.00
2018-11-03T20:49:11.472Z,26.33
2018-11-03T20:51:40.852Z,30.33
2018-11-03T20:54:15.856Z,25.33
2018-11-03T20:56:45.904Z,30.33
2018-11-03T20:59:16.824Z,25.33
2018-11-03T21:01:46.218Z,31.33
2018-11-03T21:04:15.798Z,29.67
2018-11-03T21:06:45.340Z,23.33
2018-11-03T21:09:14.904Z,27.00
2018-11-03T21:11:48.230Z,26.00
2018-11-03T21:14:25.344Z,30.33
2018-11-03T21:16:58.383Z,26.67
2018-11-03T21:19:29.514Z,28.67
2018-11-03T21:21:59.803Z,24.33
2018-11-03T21:24:29.966Z,29.00
2018-11-03T21:27:03.145Z,28.67
2018-11-03T21:29:35.185Z,26.00
2018-11-03T21:32:07.571Z,26.00
2018-11-03T21:34:37.721Z,25.00
2018-11-03T21:37:10.183Z,29.33
2018-11-03T21:39:41.391Z,26.00
2018-11-03T21:42:14.384Z,25.33
2018-11-03T21:44:45.387Z,28.33
2018-11-03T21:47:18.500Z,25.67
2018-11-03T21:49:54.408Z,22.67
2018-11-03T21:52:26.264Z,28.67
2018-11-03T21:55:04.797Z,26.00
2018-11-03T21:57:35.842Z,26.00
2018-11-03T22:03:03.464Z,22.00
2018-11-03T22:05:37.141Z,31.00
2018-11-03T22:08:09.028Z,28.67
2018-11-03T22:10:51.273Z,29.00
2018-11-03T22:13:30.408Z,26.00
2018-11-03T22:16:03.722Z,24.00
2018-11-03T22:18:35.571Z,30.00
2018-11-03T22:21:09.628Z,27.67
2018-11-03T22:23:41.869Z,28.33
2018-11-03T22:26:12.104Z,27.67
2018-11-03T22:28:41.692Z,27.00
2018-11-03T22:31:16.270Z,25.67
2018-11-03T22:33:47.992Z,25.67
2018-11-03T22:36:22.385Z,28.33
2018-11-03T22:38:53.692Z,28.33
2018-11-03T22:41:28.066Z,28.00
2018-11-03T22:43:57.459Z,27.00
2018-11-03T22:46:30.785Z,29.00
2018-11-03T22:49:07.191Z,27.00
2018-11-03T22:51:38.329Z,26.33
2018-11-03T22:54:09.121Z,24.00
2018-11-03T22:56:43.492Z,29.00
2018-11-03T22:59:17.590Z,29.00
2018-11-03T23:01:49.188Z,29.00
2018-11-03T23:04:20.575Z,28.67
2018-11-03T23:06:52.481Z,28.33
2018-11-03T23:09:22.858Z,24.67
2018-11-03T23:11:55.373Z,28.33
2018-11-03T23:14:24.785Z,31.00
2018-11-03T23:16:58.023Z,29.00
2018-11-03T23:19:31.721Z,25.67
2018-11-03T23:22:01.896Z,25.33
2018-11-03T23:24:32.655Z,26.33
2018-11-03T23:27:06.604Z,27.67
2018-11-03T23:29:36.084Z,29.67
2018-11-03T23:32:09.554Z,25.00
2018-11-03T23:34:39.061Z,30.00
2018-11-03T23:37:10.652Z,25.00
2018-11-03T23:39:42.169Z,26.33
2018-11-03T23:42:12.562Z,30.67
2018-11-03T23:44:43.866Z,26.67
2018-11-03T23:47:15.296Z,31.00
2018-11-03T23:49:47.803Z,25.67
2018-11-03T23:52:21.236Z,25.67
2018-11-03T23:54:52.463Z,30.00
2018-11-03T23:57:23.333Z,28.67
2018-11-03T23:59:53.605Z,29.00
